Hauptseite
METAR-TAF:

METAR-TAF

Flughäfen :

Heeresflugplatz Bückeburg

Bückeburg, Deutschland

Breite: 52-17N, Länge: 009-05E, Höhe: 70 m

Beobachtung

Neuester Wetterbericht von vor 1 Stunde und 5 Minuten, um 18:20 UTC
Wind 5 kt aus West/Südwest
Temperatur 23°C
Luftfeuchtigkeit 53%
Luftdruck 1015 hPa
Sichtweite 10 km oder mehr
Leicht bewölkt in der Höhe von 5000 ft

METAR: ETHB 191820Z 24005KT 9999 FEW050 23/13 Q1015 BLU+BLU+

Zeit: 21:25 (19:25 UTC)

Prognose

Neuester Wetterbericht von vor 6 Stunden und 5 Minuten, um 13:20 UTC
Gültige Prognose vom 19 um 14 UTC bis 19 um 23 UTC
Wind 15 kt aus West/Südwest
Sichtweite 10 km oder mehr
Aufgelockert bewölkt in der Höhe von 5000 ft

TAF: ETHB 191320Z 1914/1923 24015KT 9999 NSW SCT050

Wetterbeobachtungen und Prognosen von mehr als 4000 Flughäfen (METAR und TAF Bericht).

Die verfügbaren Stationen werden durch gelbe und rote Markierungen auf der Karte dargestellt.

Führen Sie die Maus auf sie, um den Namen der Station zu sehen.

Darauf klicken, um die Beobachtung von Wetterbeobachtungen und Prognosen zu sehen.

Um die Karte zu ändern : klicken Sie auf den grünen Tasten mit einem schwarzen Kreuz Zum Vergrößern, auf den grünen Button mit einem Gedankenstrich zu verkleinern, oder auf die grünen Pfeile für benachbarte Karten.


METAR-TAF: